sensor_id;sensor_type;location;lat;lon;timestamp;P1;durP1;ratioP1;P2;durP2;ratioP2
8319;SDS011;4197;42.130;24.746;2023-02-15T00:01:12;17.90;;;12.63;;
8319;SDS011;4197;42.130;24.746;2023-02-15T00:03:40;18.73;;;12.73;;
8319;SDS011;4197;42.130;24.746;2023-02-15T00:06:08;18.73;;;12.43;;
8319;SDS011;4197;42.130;24.746;2023-02-15T00:08:36;19.27;;;12.87;;
8319;SDS011;4197;42.130;24.746;2023-02-15T00:11:05;20.83;;;13.67;;
8319;SDS011;4197;42.130;24.746;2023-02-15T00:13:36;18.33;;;12.83;;
8319;SDS011;4197;42.130;24.746;2023-02-15T00:16:06;17.90;;;12.97;;
8319;SDS011;4197;42.130;24.746;2023-02-15T00:18:35;19.37;;;12.73;;
8319;SDS011;4197;42.130;24.746;2023-02-15T00:21:05;20.90;;;13.50;;
8319;SDS011;4197;42.130;24.746;2023-02-15T00:23:35;19.03;;;13.23;;
8319;SDS011;4197;42.130;24.746;2023-02-15T00:26:07;19.80;;;13.20;;
8319;SDS011;4197;42.130;24.746;2023-02-15T00:28:39;22.77;;;14.60;;
8319;SDS011;4197;42.130;24.746;2023-02-15T00:31:07;19.50;;;14.47;;
8319;SDS011;4197;42.130;24.746;2023-02-15T00:33:37;20.27;;;14.70;;
8319;SDS011;4197;42.130;24.746;2023-02-15T00:36:10;21.33;;;15.20;;
8319;SDS011;4197;42.130;24.746;2023-02-15T00:38:39;23.07;;;13.93;;
8319;SDS011;4197;42.130;24.746;2023-02-15T00:41:11;20.40;;;13.83;;
8319;SDS011;4197;42.130;24.746;2023-02-15T00:43:41;24.53;;;14.77;;
8319;SDS011;4197;42.130;24.746;2023-02-15T00:46:09;21.10;;;14.67;;
8319;SDS011;4197;42.130;24.746;2023-02-15T00:48:38;21.63;;;14.47;;
8319;SDS011;4197;42.130;24.746;2023-02-15T00:51:06;22.93;;;14.40;;
8319;SDS011;4197;42.130;24.746;2023-02-15T00:53:34;22.10;;;14.67;;
8319;SDS011;4197;42.130;24.746;2023-02-15T00:56:03;23.93;;;14.87;;
8319;SDS011;4197;42.130;24.746;2023-02-15T00:58:31;24.40;;;16.00;;
8319;SDS011;4197;42.130;24.746;2023-02-15T01:01:03;20.27;;;14.50;;
8319;SDS011;4197;42.130;24.746;2023-02-15T01:03:33;19.33;;;14.03;;
8319;SDS011;4197;42.130;24.746;2023-02-15T01:06:02;22.50;;;15.03;;
8319;SDS011;4197;42.130;24.746;2023-02-15T01:08:31;25.23;;;16.57;;
8319;SDS011;4197;42.130;24.746;2023-02-15T01:11:02;23.33;;;15.13;;
8319;SDS011;4197;42.130;24.746;2023-02-15T01:13:32;22.53;;;14.73;;
8319;SDS011;4197;42.130;24.746;2023-02-15T01:16:00;21.43;;;14.87;;
8319;SDS011;4197;42.130;24.746;2023-02-15T01:18:31;22.97;;;15.90;;
8319;SDS011;4197;42.130;24.746;2023-02-15T01:21:00;23.40;;;15.53;;
8319;SDS011;4197;42.130;24.746;2023-02-15T01:23:36;22.23;;;15.27;;
8319;SDS011;4197;42.130;24.746;2023-02-15T01:26:05;24.30;;;15.63;;
8319;SDS011;4197;42.130;24.746;2023-02-15T01:28:33;21.90;;;15.17;;
8319;SDS011;4197;42.130;24.746;2023-02-15T01:31:05;24.47;;;15.60;;
8319;SDS011;4197;42.130;24.746;2023-02-15T01:33:36;24.97;;;15.00;;
8319;SDS011;4197;42.130;24.746;2023-02-15T01:36:05;24.13;;;15.47;;
8319;SDS011;4197;42.130;24.746;2023-02-15T01:38:34;24.93;;;15.53;;
8319;SDS011;4197;42.130;24.746;2023-02-15T01:41:02;23.13;;;15.33;;
8319;SDS011;4197;42.130;24.746;2023-02-15T01:43:45;25.03;;;16.90;;
8319;SDS011;4197;42.130;24.746;2023-02-15T01:46:15;23.93;;;15.60;;
8319;SDS011;4197;42.130;24.746;2023-02-15T01:48:48;24.77;;;16.83;;
8319;SDS011;4197;42.130;24.746;2023-02-15T01:51:20;27.33;;;15.97;;
8319;SDS011;4197;42.130;24.746;2023-02-15T01:53:52;25.27;;;16.93;;
8319;SDS011;4197;42.130;24.746;2023-02-15T01:56:25;25.53;;;14.83;;
8319;SDS011;4197;42.130;24.746;2023-02-15T01:58:57;26.07;;;16.20;;
8319;SDS011;4197;42.130;24.746;2023-02-15T02:01:30;25.37;;;15.13;;
8319;SDS011;4197;42.130;24.746;2023-02-15T02:04:00;23.10;;;15.67;;
8319;SDS011;4197;42.130;24.746;2023-02-15T02:06:39;25.40;;;17.83;;
8319;SDS011;4197;42.130;24.746;2023-02-15T02:09:07;24.77;;;15.90;;
8319;SDS011;4197;42.130;24.746;2023-02-15T02:11:36;25.30;;;16.33;;
8319;SDS011;4197;42.130;24.746;2023-02-15T02:14:08;27.10;;;16.70;;
8319;SDS011;4197;42.130;24.746;2023-02-15T02:16:38;23.23;;;15.23;;
8319;SDS011;4197;42.130;24.746;2023-02-15T02:19:29;23.20;;;15.03;;
8319;SDS011;4197;42.130;24.746;2023-02-15T02:22:22;22.70;;;15.47;;
8319;SDS011;4197;42.130;24.746;2023-02-15T02:25:14;23.83;;;14.57;;
8319;SDS011;4197;42.130;24.746;2023-02-15T02:28:01;24.80;;;14.67;;
8319;SDS011;4197;42.130;24.746;2023-02-15T02:30:45;24.77;;;16.67;;
8319;SDS011;4197;42.130;24.746;2023-02-15T02:33:37;23.33;;;15.60;;
8319;SDS011;4197;42.130;24.746;2023-02-15T02:36:15;26.80;;;15.83;;
8319;SDS011;4197;42.130;24.746;2023-02-15T02:38:55;22.37;;;15.23;;
8319;SDS011;4197;42.130;24.746;2023-02-15T02:41:36;23.17;;;14.67;;
8319;SDS011;4197;42.130;24.746;2023-02-15T02:44:13;23.47;;;14.87;;
8319;SDS011;4197;42.130;24.746;2023-02-15T02:46:50;26.27;;;16.77;;
8319;SDS011;4197;42.130;24.746;2023-02-15T02:49:33;22.70;;;15.00;;
8319;SDS011;4197;42.130;24.746;2023-02-15T02:52:04;22.23;;;15.20;;
8319;SDS011;4197;42.130;24.746;2023-02-15T02:54:34;23.27;;;16.03;;
8319;SDS011;4197;42.130;24.746;2023-02-15T02:57:04;25.73;;;16.53;;
8319;SDS011;4197;42.130;24.746;2023-02-15T02:59:36;23.23;;;15.47;;
8319;SDS011;4197;42.130;24.746;2023-02-15T03:02:10;25.73;;;16.87;;
8319;SDS011;4197;42.130;24.746;2023-02-15T03:04:43;27.37;;;17.17;;
8319;SDS011;4197;42.130;24.746;2023-02-15T03:07:16;25.57;;;16.60;;
8319;SDS011;4197;42.130;24.746;2023-02-15T03:09:49;25.87;;;16.93;;
8319;SDS011;4197;42.130;24.746;2023-02-15T03:12:19;26.27;;;18.23;;
8319;SDS011;4197;42.130;24.746;2023-02-15T03:14:51;26.60;;;17.00;;
8319;SDS011;4197;42.130;24.746;2023-02-15T03:17:23;29.60;;;18.27;;
8319;SDS011;4197;42.130;24.746;2023-02-15T03:19:57;29.47;;;18.17;;
8319;SDS011;4197;42.130;24.746;2023-02-15T03:22:31;34.20;;;23.70;;
8319;SDS011;4197;42.130;24.746;2023-02-15T03:25:04;28.97;;;18.53;;
8319;SDS011;4197;42.130;24.746;2023-02-15T03:27:37;29.17;;;18.17;;
8319;SDS011;4197;42.130;24.746;2023-02-15T03:30:09;27.37;;;18.73;;
8319;SDS011;4197;42.130;24.746;2023-02-15T03:32:42;27.00;;;18.57;;
8319;SDS011;4197;42.130;24.746;2023-02-15T03:35:14;28.53;;;18.40;;
8319;SDS011;4197;42.130;24.746;2023-02-15T03:37:43;24.90;;;17.83;;
8319;SDS011;4197;42.130;24.746;2023-02-15T03:40:18;28.57;;;18.23;;
8319;SDS011;4197;42.130;24.746;2023-02-15T03:43:10;28.80;;;18.03;;
8319;SDS011;4197;42.130;24.746;2023-02-15T03:45:43;27.50;;;16.60;;
8319;SDS011;4197;42.130;24.746;2023-02-15T03:48:22;30.63;;;17.17;;
8319;SDS011;4197;42.130;24.746;2023-02-15T03:50:57;25.80;;;16.53;;
8319;SDS011;4197;42.130;24.746;2023-02-15T03:53:47;25.70;;;17.57;;
8319;SDS011;4197;42.130;24.746;2023-02-15T03:56:17;29.20;;;18.07;;
8319;SDS011;4197;42.130;24.746;2023-02-15T03:58:45;28.10;;;18.17;;
8319;SDS011;4197;42.130;24.746;2023-02-15T04:01:32;28.00;;;17.97;;
8319;SDS011;4197;42.130;24.746;2023-02-15T04:04:22;27.03;;;17.83;;
8319;SDS011;4197;42.130;24.746;2023-02-15T04:06:54;29.77;;;19.53;;
8319;SDS011;4197;42.130;24.746;2023-02-15T04:09:22;29.53;;;18.93;;
8319;SDS011;4197;42.130;24.746;2023-02-15T04:12:11;31.93;;;19.03;;
8319;SDS011;4197;42.130;24.746;2023-02-15T04:14:39;29.97;;;19.27;;
8319;SDS011;4197;42.130;24.746;2023-02-15T04:17:25;29.97;;;18.97;;
8319;SDS011;4197;42.130;24.746;2023-02-15T04:19:53;28.33;;;18.27;;
8319;SDS011;4197;42.130;24.746;2023-02-15T04:22:40;26.77;;;18.20;;
8319;SDS011;4197;42.130;24.746;2023-02-15T04:25:26;25.87;;;17.33;;
8319;SDS011;4197;42.130;24.746;2023-02-15T04:27:54;28.97;;;18.50;;
8319;SDS011;4197;42.130;24.746;2023-02-15T04:30:23;27.23;;;19.03;;
8319;SDS011;4197;42.130;24.746;2023-02-15T04:32:54;32.53;;;18.57;;
8319;SDS011;4197;42.130;24.746;2023-02-15T04:35:24;31.53;;;19.63;;
8319;SDS011;4197;42.130;24.746;2023-02-15T04:37:53;25.87;;;17.67;;
8319;SDS011;4197;42.130;24.746;2023-02-15T04:40:22;29.77;;;19.20;;
8319;SDS011;4197;42.130;24.746;2023-02-15T04:42:50;26.70;;;17.83;;
8319;SDS011;4197;42.130;24.746;2023-02-15T04:45:18;27.13;;;17.40;;
8319;SDS011;4197;42.130;24.746;2023-02-15T04:47:47;28.23;;;17.27;;
8319;SDS011;4197;42.130;24.746;2023-02-15T04:50:15;33.37;;;19.97;;
8319;SDS011;4197;42.130;24.746;2023-02-15T04:52:44;32.63;;;18.97;;
8319;SDS011;4197;42.130;24.746;2023-02-15T04:55:14;29.33;;;18.30;;
8319;SDS011;4197;42.130;24.746;2023-02-15T04:57:42;28.57;;;19.60;;
8319;SDS011;4197;42.130;24.746;2023-02-15T05:00:10;27.60;;;18.30;;
8319;SDS011;4197;42.130;24.746;2023-02-15T05:02:39;36.17;;;22.87;;
8319;SDS011;4197;42.130;24.746;2023-02-15T05:05:07;27.07;;;17.43;;
8319;SDS011;4197;42.130;24.746;2023-02-15T05:07:39;27.07;;;18.07;;
8319;SDS011;4197;42.130;24.746;2023-02-15T05:10:08;28.13;;;18.13;;
8319;SDS011;4197;42.130;24.746;2023-02-15T05:12:38;30.10;;;18.07;;
8319;SDS011;4197;42.130;24.746;2023-02-15T05:15:06;29.53;;;18.40;;
8319;SDS011;4197;42.130;24.746;2023-02-15T05:17:35;31.20;;;18.80;;
8319;SDS011;4197;42.130;24.746;2023-02-15T05:20:04;29.33;;;18.90;;
8319;SDS011;4197;42.130;24.746;2023-02-15T05:22:32;28.63;;;18.57;;
8319;SDS011;4197;42.130;24.746;2023-02-15T05:25:01;29.17;;;18.30;;
8319;SDS011;4197;42.130;24.746;2023-02-15T05:27:48;30.23;;;18.63;;
8319;SDS011;4197;42.130;24.746;2023-02-15T05:30:33;29.07;;;18.60;;
8319;SDS011;4197;42.130;24.746;2023-02-15T05:33:02;36.17;;;19.00;;
8319;SDS011;4197;42.130;24.746;2023-02-15T05:35:31;28.17;;;18.33;;
8319;SDS011;4197;42.130;24.746;2023-02-15T05:38:00;28.77;;;19.10;;
8319;SDS011;4197;42.130;24.746;2023-02-15T05:40:28;32.97;;;18.77;;
8319;SDS011;4197;42.130;24.746;2023-02-15T05:42:58;30.03;;;18.83;;
8319;SDS011;4197;42.130;24.746;2023-02-15T05:45:27;28.90;;;18.03;;
8319;SDS011;4197;42.130;24.746;2023-02-15T05:47:55;31.03;;;20.30;;
8319;SDS011;4197;42.130;24.746;2023-02-15T05:50:24;29.17;;;18.43;;
8319;SDS011;4197;42.130;24.746;2023-02-15T05:52:53;30.27;;;18.63;;
8319;SDS011;4197;42.130;24.746;2023-02-15T05:55:21;27.30;;;17.53;;
8319;SDS011;4197;42.130;24.746;2023-02-15T05:57:49;26.50;;;18.00;;
8319;SDS011;4197;42.130;24.746;2023-02-15T06:00:19;30.17;;;18.77;;
8319;SDS011;4197;42.130;24.746;2023-02-15T06:02:48;30.37;;;17.90;;
8319;SDS011;4197;42.130;24.746;2023-02-15T06:05:16;27.87;;;17.97;;
8319;SDS011;4197;42.130;24.746;2023-02-15T06:07:44;29.80;;;18.93;;
8319;SDS011;4197;42.130;24.746;2023-02-15T06:10:13;33.60;;;17.40;;
8319;SDS011;4197;42.130;24.746;2023-02-15T06:12:41;29.03;;;18.70;;
8319;SDS011;4197;42.130;24.746;2023-02-15T06:15:11;78.73;;;40.40;;
8319;SDS011;4197;42.130;24.746;2023-02-15T06:17:42;35.40;;;19.43;;
8319;SDS011;4197;42.130;24.746;2023-02-15T06:20:10;28.80;;;18.43;;
8319;SDS011;4197;42.130;24.746;2023-02-15T06:22:39;27.50;;;18.30;;
8319;SDS011;4197;42.130;24.746;2023-02-15T06:25:07;29.57;;;18.27;;
8319;SDS011;4197;42.130;24.746;2023-02-15T06:27:37;29.47;;;18.60;;
8319;SDS011;4197;42.130;24.746;2023-02-15T06:30:09;32.07;;;18.03;;
8319;SDS011;4197;42.130;24.746;2023-02-15T06:32:39;28.90;;;17.33;;
8319;SDS011;4197;42.130;24.746;2023-02-15T06:35:09;25.63;;;17.13;;
8319;SDS011;4197;42.130;24.746;2023-02-15T06:37:38;27.63;;;17.90;;
8319;SDS011;4197;42.130;24.746;2023-02-15T06:40:07;24.90;;;17.03;;
8319;SDS011;4197;42.130;24.746;2023-02-15T06:42:36;28.67;;;17.53;;
8319;SDS011;4197;42.130;24.746;2023-02-15T06:45:04;27.27;;;17.80;;
8319;SDS011;4197;42.130;24.746;2023-02-15T06:47:33;28.77;;;17.50;;
8319;SDS011;4197;42.130;24.746;2023-02-15T06:50:02;28.30;;;17.67;;
8319;SDS011;4197;42.130;24.746;2023-02-15T06:52:33;27.07;;;17.87;;
8319;SDS011;4197;42.130;24.746;2023-02-15T06:55:02;28.33;;;16.50;;
8319;SDS011;4197;42.130;24.746;2023-02-15T06:57:30;26.13;;;16.77;;
8319;SDS011;4197;42.130;24.746;2023-02-15T06:59:59;27.80;;;17.00;;
8319;SDS011;4197;42.130;24.746;2023-02-15T07:02:28;27.20;;;17.47;;
8319;SDS011;4197;42.130;24.746;2023-02-15T07:04:56;27.83;;;17.70;;
8319;SDS011;4197;42.130;24.746;2023-02-15T07:07:24;25.80;;;16.77;;
8319;SDS011;4197;42.130;24.746;2023-02-15T07:09:54;27.23;;;17.70;;
8319;SDS011;4197;42.130;24.746;2023-02-15T07:12:22;25.53;;;16.50;;
8319;SDS011;4197;42.130;24.746;2023-02-15T07:15:09;28.00;;;16.83;;
8319;SDS011;4197;42.130;24.746;2023-02-15T07:17:39;23.30;;;15.90;;
8319;SDS011;4197;42.130;24.746;2023-02-15T07:20:08;23.27;;;15.83;;
8319;SDS011;4197;42.130;24.746;2023-02-15T07:22:38;24.60;;;15.80;;
8319;SDS011;4197;42.130;24.746;2023-02-15T07:25:08;24.50;;;16.17;;
8319;SDS011;4197;42.130;24.746;2023-02-15T07:27:38;23.53;;;15.40;;
8319;SDS011;4197;42.130;24.746;2023-02-15T07:30:09;27.50;;;16.53;;
8319;SDS011;4197;42.130;24.746;2023-02-15T07:32:39;26.30;;;16.30;;
8319;SDS011;4197;42.130;24.746;2023-02-15T07:35:30;25.63;;;17.37;;
8319;SDS011;4197;42.130;24.746;2023-02-15T07:37:59;24.53;;;16.70;;
8319;SDS011;4197;42.130;24.746;2023-02-15T07:40:29;25.77;;;16.63;;
8319;SDS011;4197;42.130;24.746;2023-02-15T07:42:57;25.10;;;16.40;;
8319;SDS011;4197;42.130;24.746;2023-02-15T07:45:26;26.93;;;16.47;;
8319;SDS011;4197;42.130;24.746;2023-02-15T07:47:54;23.80;;;15.53;;
8319;SDS011;4197;42.130;24.746;2023-02-15T07:50:23;29.50;;;17.10;;
8319;SDS011;4197;42.130;24.746;2023-02-15T07:52:51;27.10;;;16.30;;
8319;SDS011;4197;42.130;24.746;2023-02-15T07:55:20;21.50;;;15.23;;
8319;SDS011;4197;42.130;24.746;2023-02-15T07:57:50;21.83;;;14.90;;
8319;SDS011;4197;42.130;24.746;2023-02-15T08:00:20;25.13;;;15.13;;
8319;SDS011;4197;42.130;24.746;2023-02-15T08:02:51;28.50;;;16.53;;
8319;SDS011;4197;42.130;24.746;2023-02-15T08:05:36;23.67;;;15.80;;
8319;SDS011;4197;42.130;24.746;2023-02-15T08:08:04;22.47;;;15.93;;
8319;SDS011;4197;42.130;24.746;2023-02-15T08:10:32;25.43;;;16.23;;
8319;SDS011;4197;42.130;24.746;2023-02-15T08:13:20;23.70;;;16.23;;
8319;SDS011;4197;42.130;24.746;2023-02-15T08:15:48;23.23;;;15.93;;
8319;SDS011;4197;42.130;24.746;2023-02-15T08:18:17;23.57;;;16.30;;
8319;SDS011;4197;42.130;24.746;2023-02-15T08:20:48;26.43;;;16.60;;
8319;SDS011;4197;42.130;24.746;2023-02-15T08:23:16;23.30;;;15.17;;
8319;SDS011;4197;42.130;24.746;2023-02-15T08:25:44;28.20;;;16.67;;
8319;SDS011;4197;42.130;24.746;2023-02-15T08:28:13;20.50;;;14.07;;
8319;SDS011;4197;42.130;24.746;2023-02-15T08:30:43;25.27;;;16.67;;
8319;SDS011;4197;42.130;24.746;2023-02-15T08:33:15;24.63;;;16.93;;
8319;SDS011;4197;42.130;24.746;2023-02-15T08:35:44;24.23;;;16.30;;
8319;SDS011;4197;42.130;24.746;2023-02-15T08:38:12;22.77;;;15.53;;
8319;SDS011;4197;42.130;24.746;2023-02-15T08:40:41;26.47;;;16.37;;
8319;SDS011;4197;42.130;24.746;2023-02-15T08:43:09;24.53;;;16.90;;
8319;SDS011;4197;42.130;24.746;2023-02-15T08:45:37;30.03;;;18.00;;
8319;SDS011;4197;42.130;24.746;2023-02-15T08:48:07;24.63;;;16.20;;
8319;SDS011;4197;42.130;24.746;2023-02-15T08:50:35;26.63;;;16.53;;
8319;SDS011;4197;42.130;24.746;2023-02-15T08:53:04;24.40;;;16.67;;
8319;SDS011;4197;42.130;24.746;2023-02-15T08:55:32;23.77;;;16.33;;
8319;SDS011;4197;42.130;24.746;2023-02-15T08:58:00;33.10;;;16.93;;
8319;SDS011;4197;42.130;24.746;2023-02-15T09:00:28;24.50;;;16.30;;
8319;SDS011;4197;42.130;24.746;2023-02-15T09:02:57;27.03;;;16.97;;
8319;SDS011;4197;42.130;24.746;2023-02-15T09:05:27;24.03;;;15.90;;
8319;SDS011;4197;42.130;24.746;2023-02-15T09:07:55;23.07;;;17.03;;
8319;SDS011;4197;42.130;24.746;2023-02-15T09:10:23;22.13;;;16.07;;
8319;SDS011;4197;42.130;24.746;2023-02-15T09:12:51;28.57;;;16.40;;
8319;SDS011;4197;42.130;24.746;2023-02-15T09:15:20;22.10;;;15.37;;
8319;SDS011;4197;42.130;24.746;2023-02-15T09:17:49;23.43;;;16.40;;
8319;SDS011;4197;42.130;24.746;2023-02-15T09:20:18;23.97;;;16.37;;
8319;SDS011;4197;42.130;24.746;2023-02-15T09:22:47;24.50;;;15.93;;
8319;SDS011;4197;42.130;24.746;2023-02-15T09:25:16;23.20;;;15.83;;
8319;SDS011;4197;42.130;24.746;2023-02-15T09:27:44;22.50;;;15.67;;
8319;SDS011;4197;42.130;24.746;2023-02-15T09:30:13;23.53;;;14.80;;
8319;SDS011;4197;42.130;24.746;2023-02-15T09:32:41;23.43;;;15.40;;
8319;SDS011;4197;42.130;24.746;2023-02-15T09:35:09;23.33;;;15.93;;
8319;SDS011;4197;42.130;24.746;2023-02-15T09:37:38;24.97;;;15.83;;
8319;SDS011;4197;42.130;24.746;2023-02-15T09:40:08;23.20;;;16.13;;
8319;SDS011;4197;42.130;24.746;2023-02-15T09:42:55;20.53;;;14.80;;
8319;SDS011;4197;42.130;24.746;2023-02-15T09:45:41;20.63;;;13.87;;
8319;SDS011;4197;42.130;24.746;2023-02-15T09:48:29;21.27;;;14.90;;
8319;SDS011;4197;42.130;24.746;2023-02-15T09:51:19;19.80;;;14.67;;
8319;SDS011;4197;42.130;24.746;2023-02-15T09:54:14;21.53;;;16.27;;
8319;SDS011;4197;42.130;24.746;2023-02-15T09:56:55;20.00;;;14.57;;
8319;SDS011;4197;42.130;24.746;2023-02-15T09:59:34;24.03;;;15.40;;
8319;SDS011;4197;42.130;24.746;2023-02-15T10:02:19;22.13;;;15.57;;
8319;SDS011;4197;42.130;24.746;2023-02-15T10:05:07;21.63;;;15.37;;
8319;SDS011;4197;42.130;24.746;2023-02-15T10:07:53;20.93;;;14.53;;
8319;SDS011;4197;42.130;24.746;2023-02-15T10:10:44;22.50;;;16.03;;
8319;SDS011;4197;42.130;24.746;2023-02-15T10:13:26;20.43;;;14.03;;
8319;SDS011;4197;42.130;24.746;2023-02-15T10:16:07;20.00;;;13.97;;
8319;SDS011;4197;42.130;24.746;2023-02-15T10:18:48;20.60;;;14.43;;
8319;SDS011;4197;42.130;24.746;2023-02-15T10:21:30;21.47;;;14.23;;
8319;SDS011;4197;42.130;24.746;2023-02-15T10:27:15;19.87;;;14.30;;
8319;SDS011;4197;42.130;24.746;2023-02-15T10:29:51;23.43;;;14.07;;
8319;SDS011;4197;42.130;24.746;2023-02-15T10:32:31;20.37;;;13.40;;
8319;SDS011;4197;42.130;24.746;2023-02-15T10:35:09;18.73;;;13.83;;
8319;SDS011;4197;42.130;24.746;2023-02-15T10:37:49;19.97;;;14.90;;
8319;SDS011;4197;42.130;24.746;2023-02-15T10:40:36;17.60;;;12.33;;
8319;SDS011;4197;42.130;24.746;2023-02-15T10:43:18;19.07;;;13.10;;
8319;SDS011;4197;42.130;24.746;2023-02-15T10:46:03;18.30;;;12.53;;
8319;SDS011;4197;42.130;24.746;2023-02-15T10:48:44;21.20;;;13.97;;
8319;SDS011;4197;42.130;24.746;2023-02-15T10:51:38;18.47;;;12.97;;
8319;SDS011;4197;42.130;24.746;2023-02-15T10:54:19;18.90;;;14.17;;
8319;SDS011;4197;42.130;24.746;2023-02-15T10:56:59;22.27;;;14.70;;
8319;SDS011;4197;42.130;24.746;2023-02-15T10:59:38;23.00;;;14.40;;
8319;SDS011;4197;42.130;24.746;2023-02-15T11:02:31;24.20;;;12.87;;
8319;SDS011;4197;42.130;24.746;2023-02-15T11:05:17;16.73;;;11.47;;
8319;SDS011;4197;42.130;24.746;2023-02-15T11:07:54;17.57;;;12.80;;
8319;SDS011;4197;42.130;24.746;2023-02-15T11:10:32;17.03;;;13.33;;
8319;SDS011;4197;42.130;24.746;2023-02-15T11:13:06;18.43;;;12.93;;
8319;SDS011;4197;42.130;24.746;2023-02-15T11:15:40;19.60;;;13.10;;
8319;SDS011;4197;42.130;24.746;2023-02-15T11:18:15;20.33;;;12.70;;
8319;SDS011;4197;42.130;24.746;2023-02-15T11:20:52;20.57;;;12.83;;
8319;SDS011;4197;42.130;24.746;2023-02-15T11:23:24;18.90;;;13.30;;
8319;SDS011;4197;42.130;24.746;2023-02-15T11:25:55;18.47;;;12.93;;
8319;SDS011;4197;42.130;24.746;2023-02-15T11:28:27;18.13;;;12.27;;
8319;SDS011;4197;42.130;24.746;2023-02-15T11:31:02;15.63;;;11.40;;
8319;SDS011;4197;42.130;24.746;2023-02-15T11:33:43;17.07;;;11.43;;
8319;SDS011;4197;42.130;24.746;2023-02-15T11:36:15;15.50;;;10.63;;
8319;SDS011;4197;42.130;24.746;2023-02-15T11:38:47;15.60;;;12.10;;
8319;SDS011;4197;42.130;24.746;2023-02-15T11:41:21;17.67;;;13.03;;
8319;SDS011;4197;42.130;24.746;2023-02-15T11:43:54;15.83;;;12.63;;
8319;SDS011;4197;42.130;24.746;2023-02-15T11:46:28;17.10;;;12.17;;
8319;SDS011;4197;42.130;24.746;2023-02-15T11:48:58;20.00;;;13.20;;
8319;SDS011;4197;42.130;24.746;2023-02-15T11:51:27;16.70;;;11.47;;
8319;SDS011;4197;42.130;24.746;2023-02-15T11:53:56;16.10;;;11.70;;
8319;SDS011;4197;42.130;24.746;2023-02-15T11:56:25;17.33;;;12.40;;
8319;SDS011;4197;42.130;24.746;2023-02-15T11:58:54;16.87;;;12.37;;
8319;SDS011;4197;42.130;24.746;2023-02-15T12:01:28;16.90;;;12.13;;
8319;SDS011;4197;42.130;24.746;2023-02-15T12:04:03;18.13;;;12.53;;
8319;SDS011;4197;42.130;24.746;2023-02-15T12:06:36;20.53;;;12.93;;
8319;SDS011;4197;42.130;24.746;2023-02-15T12:09:12;20.07;;;13.10;;
8319;SDS011;4197;42.130;24.746;2023-02-15T12:11:49;19.87;;;13.40;;
8319;SDS011;4197;42.130;24.746;2023-02-15T12:14:17;18.13;;;13.33;;
8319;SDS011;4197;42.130;24.746;2023-02-15T12:16:48;22.83;;;12.70;;
8319;SDS011;4197;42.130;24.746;2023-02-15T12:19:28;16.10;;;12.07;;
8319;SDS011;4197;42.130;24.746;2023-02-15T12:21:59;15.03;;;11.57;;
8319;SDS011;4197;42.130;24.746;2023-02-15T12:24:30;21.43;;;12.43;;
8319;SDS011;4197;42.130;24.746;2023-02-15T12:27:03;20.83;;;12.47;;
8319;SDS011;4197;42.130;24.746;2023-02-15T12:29:35;17.97;;;11.57;;
8319;SDS011;4197;42.130;24.746;2023-02-15T12:32:10;17.80;;;11.37;;
8319;SDS011;4197;42.130;24.746;2023-02-15T12:34:48;15.40;;;12.30;;
8319;SDS011;4197;42.130;24.746;2023-02-15T12:37:19;20.87;;;11.27;;
8319;SDS011;4197;42.130;24.746;2023-02-15T12:39:51;16.00;;;10.27;;
8319;SDS011;4197;42.130;24.746;2023-02-15T12:42:22;15.17;;;11.00;;
8319;SDS011;4197;42.130;24.746;2023-02-15T12:44:53;22.17;;;11.30;;
8319;SDS011;4197;42.130;24.746;2023-02-15T12:47:23;13.80;;;10.03;;
8319;SDS011;4197;42.130;24.746;2023-02-15T12:50:11;18.30;;;13.30;;
8319;SDS011;4197;42.130;24.746;2023-02-15T12:52:50;20.70;;;13.87;;
8319;SDS011;4197;42.130;24.746;2023-02-15T12:55:32;19.33;;;12.83;;
8319;SDS011;4197;42.130;24.746;2023-02-15T12:58:07;17.70;;;11.00;;
8319;SDS011;4197;42.130;24.746;2023-02-15T13:00:42;14.70;;;10.73;;
8319;SDS011;4197;42.130;24.746;2023-02-15T13:03:15;16.30;;;10.30;;
8319;SDS011;4197;42.130;24.746;2023-02-15T13:05:49;17.33;;;10.97;;
8319;SDS011;4197;42.130;24.746;2023-02-15T13:08:21;12.87;;;10.07;;
8319;SDS011;4197;42.130;24.746;2023-02-15T13:10:55;12.33;;;9.20;;
8319;SDS011;4197;42.130;24.746;2023-02-15T13:13:29;16.73;;;10.30;;
8319;SDS011;4197;42.130;24.746;2023-02-15T13:16:00;18.77;;;11.37;;
8319;SDS011;4197;42.130;24.746;2023-02-15T13:18:33;14.83;;;10.83;;
8319;SDS011;4197;42.130;24.746;2023-02-15T13:21:09;19.63;;;12.50;;
8319;SDS011;4197;42.130;24.746;2023-02-15T13:23:41;14.17;;;10.37;;
8319;SDS011;4197;42.130;24.746;2023-02-15T13:26:16;13.57;;;10.63;;
8319;SDS011;4197;42.130;24.746;2023-02-15T13:28:48;19.27;;;11.43;;
8319;SDS011;4197;42.130;24.746;2023-02-15T13:31:20;16.80;;;11.23;;
8319;SDS011;4197;42.130;24.746;2023-02-15T13:33:52;14.97;;;11.13;;
8319;SDS011;4197;42.130;24.746;2023-02-15T13:36:25;16.13;;;11.53;;
8319;SDS011;4197;42.130;24.746;2023-02-15T13:39:02;21.07;;;12.30;;
8319;SDS011;4197;42.130;24.746;2023-02-15T13:41:46;22.57;;;15.43;;
8319;SDS011;4197;42.130;24.746;2023-02-15T13:44:23;19.83;;;12.97;;
8319;SDS011;4197;42.130;24.746;2023-02-15T13:47:03;17.97;;;12.20;;
8319;SDS011;4197;42.130;24.746;2023-02-15T13:49:47;17.50;;;12.03;;
8319;SDS011;4197;42.130;24.746;2023-02-15T13:52:27;16.17;;;12.10;;
8319;SDS011;4197;42.130;24.746;2023-02-15T13:55:06;18.53;;;12.43;;
8319;SDS011;4197;42.130;24.746;2023-02-15T13:58:01;18.67;;;12.60;;
8319;SDS011;4197;42.130;24.746;2023-02-15T14:00:45;21.47;;;14.87;;
8319;SDS011;4197;42.130;24.746;2023-02-15T14:03:40;19.17;;;13.47;;
8319;SDS011;4197;42.130;24.746;2023-02-15T14:06:39;18.10;;;12.37;;
8319;SDS011;4197;42.130;24.746;2023-02-15T14:09:20;21.80;;;12.77;;
8319;SDS011;4197;42.130;24.746;2023-02-15T14:11:58;23.60;;;15.43;;
8319;SDS011;4197;42.130;24.746;2023-02-15T14:14:59;18.27;;;11.93;;
8319;SDS011;4197;42.130;24.746;2023-02-15T14:17:50;24.83;;;13.87;;
8319;SDS011;4197;42.130;24.746;2023-02-15T14:23:22;18.70;;;12.63;;
8319;SDS011;4197;42.130;24.746;2023-02-15T14:26:04;16.17;;;12.00;;
8319;SDS011;4197;42.130;24.746;2023-02-15T14:28:39;17.00;;;13.03;;
8319;SDS011;4197;42.130;24.746;2023-02-15T14:31:14;22.07;;;15.00;;
8319;SDS011;4197;42.130;24.746;2023-02-15T14:33:47;22.50;;;15.40;;
8319;SDS011;4197;42.130;24.746;2023-02-15T14:36:24;23.57;;;13.80;;
8319;SDS011;4197;42.130;24.746;2023-02-15T14:38:59;22.83;;;14.77;;
8319;SDS011;4197;42.130;24.746;2023-02-15T14:41:59;18.73;;;13.37;;
8319;SDS011;4197;42.130;24.746;2023-02-15T14:44:35;18.67;;;12.53;;
8319;SDS011;4197;42.130;24.746;2023-02-15T14:47:10;15.50;;;11.93;;
8319;SDS011;4197;42.130;24.746;2023-02-15T14:49:47;19.43;;;11.73;;
8319;SDS011;4197;42.130;24.746;2023-02-15T14:52:15;14.80;;;11.20;;
8319;SDS011;4197;42.130;24.746;2023-02-15T14:54:53;19.20;;;12.67;;
8319;SDS011;4197;42.130;24.746;2023-02-15T14:57:25;21.87;;;13.23;;
8319;SDS011;4197;42.130;24.746;2023-02-15T15:00:02;18.53;;;11.87;;
8319;SDS011;4197;42.130;24.746;2023-02-15T15:02:50;21.67;;;11.57;;
8319;SDS011;4197;42.130;24.746;2023-02-15T15:05:22;18.90;;;12.77;;
8319;SDS011;4197;42.130;24.746;2023-02-15T15:07:54;22.37;;;12.83;;
8319;SDS011;4197;42.130;24.746;2023-02-15T15:10:36;27.83;;;14.47;;
8319;SDS011;4197;42.130;24.746;2023-02-15T15:22:34;22.43;;;13.73;;
8319;SDS011;4197;42.130;24.746;2023-02-15T15:25:08;23.37;;;13.43;;
8319;SDS011;4197;42.130;24.746;2023-02-15T15:27:42;26.50;;;14.93;;